sensor_id;sensor_type;location;lat;lon;timestamp;P1;durP1;ratioP1;P2;durP2;ratioP2
73747;SDS011;62056;52.130;5.428;2024-01-30T00:00:02;16.17;;;9.93;;
73747;SDS011;62056;52.130;5.428;2024-01-30T00:02:31;9.02;;;7.15;;
73747;SDS011;62056;52.130;5.428;2024-01-30T00:04:58;10.80;;;7.65;;
73747;SDS011;62056;52.130;5.428;2024-01-30T00:07:25;15.40;;;10.65;;
73747;SDS011;62056;52.130;5.428;2024-01-30T00:09:52;12.57;;;9.57;;
73747;SDS011;62056;52.130;5.428;2024-01-30T00:12:18;25.23;;;13.02;;
73747;SDS011;62056;52.130;5.428;2024-01-30T00:14:45;19.50;;;13.35;;
73747;SDS011;62056;52.130;5.428;2024-01-30T00:17:12;17.85;;;10.45;;
73747;SDS011;62056;52.130;5.428;2024-01-30T00:19:39;18.27;;;12.70;;
73747;SDS011;62056;52.130;5.428;2024-01-30T00:22:06;19.90;;;12.37;;
73747;SDS011;62056;52.130;5.428;2024-01-30T00:24:34;14.82;;;9.50;;
73747;SDS011;62056;52.130;5.428;2024-01-30T00:27:00;16.73;;;10.43;;
73747;SDS011;62056;52.130;5.428;2024-01-30T00:29:27;15.60;;;12.68;;
73747;SDS011;62056;52.130;5.428;2024-01-30T00:31:57;11.73;;;9.45;;
73747;SDS011;62056;52.130;5.428;2024-01-30T00:34:24;11.37;;;8.87;;
73747;SDS011;62056;52.130;5.428;2024-01-30T00:36:50;12.20;;;9.27;;
73747;SDS011;62056;52.130;5.428;2024-01-30T00:39:17;9.55;;;7.45;;
73747;SDS011;62056;52.130;5.428;2024-01-30T00:41:46;9.60;;;8.13;;
73747;SDS011;62056;52.130;5.428;2024-01-30T00:44:12;10.65;;;7.20;;
73747;SDS011;62056;52.130;5.428;2024-01-30T00:46:39;8.50;;;7.60;;
73747;SDS011;62056;52.130;5.428;2024-01-30T00:49:06;10.80;;;9.30;;
73747;SDS011;62056;52.130;5.428;2024-01-30T00:51:33;18.00;;;9.65;;
73747;SDS011;62056;52.130;5.428;2024-01-30T00:53:59;26.13;;;11.10;;
73747;SDS011;62056;52.130;5.428;2024-01-30T00:56:26;22.73;;;10.48;;
73747;SDS011;62056;52.130;5.428;2024-01-30T00:58:53;34.67;;;13.23;;
73747;SDS011;62056;52.130;5.428;2024-01-30T01:01:20;54.95;;;18.20;;
73747;SDS011;62056;52.130;5.428;2024-01-30T01:03:47;21.95;;;10.70;;
73747;SDS011;62056;52.130;5.428;2024-01-30T01:06:15;38.50;;;14.27;;
73747;SDS011;62056;52.130;5.428;2024-01-30T01:08:42;15.82;;;9.05;;
73747;SDS011;62056;52.130;5.428;2024-01-30T01:11:08;24.67;;;10.93;;
73747;SDS011;62056;52.130;5.428;2024-01-30T01:13:36;65.85;;;21.70;;
73747;SDS011;62056;52.130;5.428;2024-01-30T01:16:02;45.65;;;21.38;;
73747;SDS011;62056;52.130;5.428;2024-01-30T01:18:30;15.68;;;10.75;;
73747;SDS011;62056;52.130;5.428;2024-01-30T01:20:57;36.10;;;18.58;;
73747;SDS011;62056;52.130;5.428;2024-01-30T01:23:24;47.07;;;22.53;;
73747;SDS011;62056;52.130;5.428;2024-01-30T01:25:50;27.08;;;15.75;;
73747;SDS011;62056;52.130;5.428;2024-01-30T01:28:17;13.80;;;10.25;;
73747;SDS011;62056;52.130;5.428;2024-01-30T01:30:44;10.05;;;9.00;;
73747;SDS011;62056;52.130;5.428;2024-01-30T01:33:11;13.65;;;7.50;;
73747;SDS011;62056;52.130;5.428;2024-01-30T01:35:41;11.03;;;8.13;;
73747;SDS011;62056;52.130;5.428;2024-01-30T01:38:07;10.20;;;7.35;;
73747;SDS011;62056;52.130;5.428;2024-01-30T01:40:34;11.85;;;8.02;;
73747;SDS011;62056;52.130;5.428;2024-01-30T01:43:02;12.40;;;9.38;;
73747;SDS011;62056;52.130;5.428;2024-01-30T01:45:30;10.98;;;8.20;;
73747;SDS011;62056;52.130;5.428;2024-01-30T01:47:57;9.90;;;7.27;;
73747;SDS011;62056;52.130;5.428;2024-01-30T01:50:24;15.38;;;10.32;;
73747;SDS011;62056;52.130;5.428;2024-01-30T01:52:51;8.32;;;6.55;;
73747;SDS011;62056;52.130;5.428;2024-01-30T01:55:19;9.70;;;6.68;;
73747;SDS011;62056;52.130;5.428;2024-01-30T01:57:52;11.40;;;7.07;;
73747;SDS011;62056;52.130;5.428;2024-01-30T02:00:20;9.30;;;6.93;;
73747;SDS011;62056;52.130;5.428;2024-01-30T02:02:47;9.07;;;7.35;;
73747;SDS011;62056;52.130;5.428;2024-01-30T02:05:14;11.52;;;6.95;;
73747;SDS011;62056;52.130;5.428;2024-01-30T02:07:42;14.50;;;8.10;;
73747;SDS011;62056;52.130;5.428;2024-01-30T02:10:10;11.95;;;7.55;;
73747;SDS011;62056;52.130;5.428;2024-01-30T02:12:37;12.03;;;7.50;;
73747;SDS011;62056;52.130;5.428;2024-01-30T02:15:04;10.90;;;7.78;;
73747;SDS011;62056;52.130;5.428;2024-01-30T02:17:31;12.40;;;8.38;;
73747;SDS011;62056;52.130;5.428;2024-01-30T02:19:58;14.77;;;9.32;;
73747;SDS011;62056;52.130;5.428;2024-01-30T02:22:26;31.67;;;15.10;;
73747;SDS011;62056;52.130;5.428;2024-01-30T02:24:52;24.43;;;12.73;;
73747;SDS011;62056;52.130;5.428;2024-01-30T02:27:19;30.88;;;13.38;;
73747;SDS011;62056;52.130;5.428;2024-01-30T02:29:46;19.52;;;10.82;;
73747;SDS011;62056;52.130;5.428;2024-01-30T02:32:13;16.17;;;9.27;;
73747;SDS011;62056;52.130;5.428;2024-01-30T02:34:39;21.42;;;12.20;;
73747;SDS011;62056;52.130;5.428;2024-01-30T02:37:06;23.60;;;13.83;;
73747;SDS011;62056;52.130;5.428;2024-01-30T02:39:33;21.25;;;11.70;;
73747;SDS011;62056;52.130;5.428;2024-01-30T02:42:00;20.60;;;11.82;;
73747;SDS011;62056;52.130;5.428;2024-01-30T02:44:26;39.40;;;23.55;;
73747;SDS011;62056;52.130;5.428;2024-01-30T02:46:53;10.95;;;8.88;;
73747;SDS011;62056;52.130;5.428;2024-01-30T02:49:20;16.83;;;10.17;;
73747;SDS011;62056;52.130;5.428;2024-01-30T02:51:48;12.32;;;8.30;;
73747;SDS011;62056;52.130;5.428;2024-01-30T02:54:15;11.35;;;8.35;;
73747;SDS011;62056;52.130;5.428;2024-01-30T02:56:42;11.43;;;7.53;;
73747;SDS011;62056;52.130;5.428;2024-01-30T02:59:08;10.25;;;8.00;;
73747;SDS011;62056;52.130;5.428;2024-01-30T03:01:42;9.60;;;7.73;;
73747;SDS011;62056;52.130;5.428;2024-01-30T03:04:09;11.20;;;8.45;;
73747;SDS011;62056;52.130;5.428;2024-01-30T03:06:37;13.43;;;8.27;;
73747;SDS011;62056;52.130;5.428;2024-01-30T03:09:04;13.45;;;8.68;;
73747;SDS011;62056;52.130;5.428;2024-01-30T03:11:31;17.50;;;11.90;;
73747;SDS011;62056;52.130;5.428;2024-01-30T03:13:57;14.63;;;8.10;;
73747;SDS011;62056;52.130;5.428;2024-01-30T03:16:24;32.30;;;20.90;;
73747;SDS011;62056;52.130;5.428;2024-01-30T03:18:51;31.20;;;20.88;;
73747;SDS011;62056;52.130;5.428;2024-01-30T03:21:17;16.02;;;9.75;;
73747;SDS011;62056;52.130;5.428;2024-01-30T03:23:44;15.45;;;8.95;;
73747;SDS011;62056;52.130;5.428;2024-01-30T03:26:11;13.27;;;9.60;;
73747;SDS011;62056;52.130;5.428;2024-01-30T03:28:39;26.02;;;17.83;;
73747;SDS011;62056;52.130;5.428;2024-01-30T03:31:06;14.60;;;9.90;;
73747;SDS011;62056;52.130;5.428;2024-01-30T03:33:33;17.42;;;11.20;;
73747;SDS011;62056;52.130;5.428;2024-01-30T03:36:02;21.17;;;15.50;;
73747;SDS011;62056;52.130;5.428;2024-01-30T03:38:31;21.57;;;10.20;;
73747;SDS011;62056;52.130;5.428;2024-01-30T03:40:59;17.20;;;10.48;;
73747;SDS011;62056;52.130;5.428;2024-01-30T03:43:26;18.23;;;12.85;;
73747;SDS011;62056;52.130;5.428;2024-01-30T03:45:53;13.55;;;8.68;;
73747;SDS011;62056;52.130;5.428;2024-01-30T03:48:20;10.35;;;7.80;;
73747;SDS011;62056;52.130;5.428;2024-01-30T03:50:47;14.13;;;7.67;;
73747;SDS011;62056;52.130;5.428;2024-01-30T03:53:14;19.73;;;12.52;;
73747;SDS011;62056;52.130;5.428;2024-01-30T03:55:41;12.85;;;9.07;;
73747;SDS011;62056;52.130;5.428;2024-01-30T03:58:08;14.68;;;7.50;;
73747;SDS011;62056;52.130;5.428;2024-01-30T04:00:35;9.25;;;8.32;;
73747;SDS011;62056;52.130;5.428;2024-01-30T04:03:02;24.00;;;17.27;;
73747;SDS011;62056;52.130;5.428;2024-01-30T04:05:29;16.23;;;7.55;;
73747;SDS011;62056;52.130;5.428;2024-01-30T04:07:56;10.85;;;6.95;;
73747;SDS011;62056;52.130;5.428;2024-01-30T04:10:23;12.75;;;7.97;;
73747;SDS011;62056;52.130;5.428;2024-01-30T04:12:51;6.88;;;6.22;;
73747;SDS011;62056;52.130;5.428;2024-01-30T04:15:18;12.90;;;6.80;;
73747;SDS011;62056;52.130;5.428;2024-01-30T04:17:45;8.35;;;5.90;;
73747;SDS011;62056;52.130;5.428;2024-01-30T04:20:15;6.22;;;5.63;;
73747;SDS011;62056;52.130;5.428;2024-01-30T04:22:45;9.77;;;6.85;;
73747;SDS011;62056;52.130;5.428;2024-01-30T04:25:13;14.05;;;8.52;;
73747;SDS011;62056;52.130;5.428;2024-01-30T04:27:41;14.40;;;8.33;;
73747;SDS011;62056;52.130;5.428;2024-01-30T04:30:07;7.05;;;6.35;;
73747;SDS011;62056;52.130;5.428;2024-01-30T04:32:35;10.25;;;8.05;;
73747;SDS011;62056;52.130;5.428;2024-01-30T04:35:02;7.20;;;6.47;;
73747;SDS011;62056;52.130;5.428;2024-01-30T04:37:36;7.35;;;5.43;;
73747;SDS011;62056;52.130;5.428;2024-01-30T04:40:04;10.93;;;7.23;;
73747;SDS011;62056;52.130;5.428;2024-01-30T04:42:32;9.65;;;6.28;;
73747;SDS011;62056;52.130;5.428;2024-01-30T04:44:58;8.60;;;5.25;;
73747;SDS011;62056;52.130;5.428;2024-01-30T04:47:25;10.50;;;6.03;;
73747;SDS011;62056;52.130;5.428;2024-01-30T04:49:52;13.65;;;5.82;;
73747;SDS011;62056;52.130;5.428;2024-01-30T04:52:19;7.47;;;4.93;;
73747;SDS011;62056;52.130;5.428;2024-01-30T04:54:47;8.30;;;5.80;;
73747;SDS011;62056;52.130;5.428;2024-01-30T04:57:14;7.60;;;5.57;;
73747;SDS011;62056;52.130;5.428;2024-01-30T04:59:40;6.82;;;5.85;;
73747;SDS011;62056;52.130;5.428;2024-01-30T05:02:08;9.13;;;6.10;;
73747;SDS011;62056;52.130;5.428;2024-01-30T05:04:35;6.70;;;5.00;;
73747;SDS011;62056;52.130;5.428;2024-01-30T05:07:01;6.47;;;5.85;;
73747;SDS011;62056;52.130;5.428;2024-01-30T05:09:29;7.07;;;6.40;;
73747;SDS011;62056;52.130;5.428;2024-01-30T05:11:56;7.97;;;6.88;;
73747;SDS011;62056;52.130;5.428;2024-01-30T05:14:23;9.48;;;6.78;;
73747;SDS011;62056;52.130;5.428;2024-01-30T05:16:50;7.33;;;6.37;;
73747;SDS011;62056;52.130;5.428;2024-01-30T05:19:16;6.03;;;4.57;;
73747;SDS011;62056;52.130;5.428;2024-01-30T05:21:44;11.77;;;5.80;;
73747;SDS011;62056;52.130;5.428;2024-01-30T05:24:10;6.95;;;5.75;;
73747;SDS011;62056;52.130;5.428;2024-01-30T05:26:37;8.30;;;5.47;;
73747;SDS011;62056;52.130;5.428;2024-01-30T05:29:05;9.03;;;5.83;;
73747;SDS011;62056;52.130;5.428;2024-01-30T05:31:32;8.93;;;5.65;;
73747;SDS011;62056;52.130;5.428;2024-01-30T05:33:59;7.57;;;5.40;;
73747;SDS011;62056;52.130;5.428;2024-01-30T05:36:26;7.47;;;5.55;;
73747;SDS011;62056;52.130;5.428;2024-01-30T05:38:52;8.43;;;7.03;;
73747;SDS011;62056;52.130;5.428;2024-01-30T05:41:19;9.47;;;4.53;;
73747;SDS011;62056;52.130;5.428;2024-01-30T05:43:47;7.65;;;5.28;;
73747;SDS011;62056;52.130;5.428;2024-01-30T05:46:14;6.15;;;5.38;;
73747;SDS011;62056;52.130;5.428;2024-01-30T05:48:41;4.88;;;4.43;;
73747;SDS011;62056;52.130;5.428;2024-01-30T05:51:08;7.03;;;5.07;;
73747;SDS011;62056;52.130;5.428;2024-01-30T05:53:35;9.57;;;5.77;;
73747;SDS011;62056;52.130;5.428;2024-01-30T05:56:02;6.20;;;5.30;;
73747;SDS011;62056;52.130;5.428;2024-01-30T05:58:29;5.65;;;5.13;;
73747;SDS011;62056;52.130;5.428;2024-01-30T06:00:57;6.35;;;5.75;;
73747;SDS011;62056;52.130;5.428;2024-01-30T06:03:24;11.80;;;6.00;;
73747;SDS011;62056;52.130;5.428;2024-01-30T06:05:51;8.10;;;7.30;;
73747;SDS011;62056;52.130;5.428;2024-01-30T06:08:18;7.95;;;5.75;;
73747;SDS011;62056;52.130;5.428;2024-01-30T06:10:45;8.07;;;5.28;;
73747;SDS011;62056;52.130;5.428;2024-01-30T06:13:13;6.53;;;5.80;;
73747;SDS011;62056;52.130;5.428;2024-01-30T06:15:40;6.70;;;5.82;;
73747;SDS011;62056;52.130;5.428;2024-01-30T06:18:07;7.50;;;6.50;;
73747;SDS011;62056;52.130;5.428;2024-01-30T06:20:34;10.27;;;5.65;;
73747;SDS011;62056;52.130;5.428;2024-01-30T06:23:01;8.05;;;5.18;;
73747;SDS011;62056;52.130;5.428;2024-01-30T06:25:27;6.78;;;5.68;;
73747;SDS011;62056;52.130;5.428;2024-01-30T06:27:54;6.35;;;5.50;;
73747;SDS011;62056;52.130;5.428;2024-01-30T06:30:21;6.90;;;4.60;;
73747;SDS011;62056;52.130;5.428;2024-01-30T06:32:47;6.85;;;5.65;;
73747;SDS011;62056;52.130;5.428;2024-01-30T06:35:15;6.18;;;5.35;;
73747;SDS011;62056;52.130;5.428;2024-01-30T06:37:43;8.10;;;5.60;;
73747;SDS011;62056;52.130;5.428;2024-01-30T06:40:10;7.63;;;5.25;;
73747;SDS011;62056;52.130;5.428;2024-01-30T06:42:37;5.40;;;4.90;;
73747;SDS011;62056;52.130;5.428;2024-01-30T06:45:04;6.38;;;5.32;;
73747;SDS011;62056;52.130;5.428;2024-01-30T06:47:31;6.15;;;5.53;;
73747;SDS011;62056;52.130;5.428;2024-01-30T06:49:58;5.68;;;4.97;;
73747;SDS011;62056;52.130;5.428;2024-01-30T06:52:26;10.80;;;6.88;;
73747;SDS011;62056;52.130;5.428;2024-01-30T06:54:53;7.27;;;4.80;;
73747;SDS011;62056;52.130;5.428;2024-01-30T06:57:20;7.65;;;5.10;;
73747;SDS011;62056;52.130;5.428;2024-01-30T06:59:47;9.82;;;4.63;;
73747;SDS011;62056;52.130;5.428;2024-01-30T07:02:14;7.30;;;4.38;;
73747;SDS011;62056;52.130;5.428;2024-01-30T07:04:48;8.02;;;4.45;;
73747;SDS011;62056;52.130;5.428;2024-01-30T07:07:16;6.83;;;3.97;;
73747;SDS011;62056;52.130;5.428;2024-01-30T07:09:43;6.43;;;4.40;;
73747;SDS011;62056;52.130;5.428;2024-01-30T07:12:09;6.82;;;4.53;;
73747;SDS011;62056;52.130;5.428;2024-01-30T07:14:36;6.82;;;5.20;;
73747;SDS011;62056;52.130;5.428;2024-01-30T07:17:03;5.68;;;4.03;;
73747;SDS011;62056;52.130;5.428;2024-01-30T07:19:30;8.53;;;4.53;;
73747;SDS011;62056;52.130;5.428;2024-01-30T07:21:57;3.88;;;3.40;;
73747;SDS011;62056;52.130;5.428;2024-01-30T07:24:24;6.85;;;4.85;;
73747;SDS011;62056;52.130;5.428;2024-01-30T07:26:50;4.70;;;3.50;;
73747;SDS011;62056;52.130;5.428;2024-01-30T07:29:17;5.35;;;4.22;;
73747;SDS011;62056;52.130;5.428;2024-01-30T07:31:44;6.03;;;4.50;;
73747;SDS011;62056;52.130;5.428;2024-01-30T07:34:11;7.30;;;5.75;;
73747;SDS011;62056;52.130;5.428;2024-01-30T07:36:38;7.72;;;4.63;;
73747;SDS011;62056;52.130;5.428;2024-01-30T07:39:05;4.55;;;3.97;;
73747;SDS011;62056;52.130;5.428;2024-01-30T07:41:32;5.05;;;4.20;;
73747;SDS011;62056;52.130;5.428;2024-01-30T07:43:59;10.57;;;4.17;;
73747;SDS011;62056;52.130;5.428;2024-01-30T07:46:26;7.18;;;4.75;;
73747;SDS011;62056;52.130;5.428;2024-01-30T07:48:53;5.43;;;4.13;;
73747;SDS011;62056;52.130;5.428;2024-01-30T07:51:21;9.20;;;5.60;;
73747;SDS011;62056;52.130;5.428;2024-01-30T07:53:54;5.20;;;4.70;;
73747;SDS011;62056;52.130;5.428;2024-01-30T07:56:24;4.77;;;3.93;;
73747;SDS011;62056;52.130;5.428;2024-01-30T07:58:51;7.15;;;4.93;;
73747;SDS011;62056;52.130;5.428;2024-01-30T08:01:18;6.05;;;4.43;;
73747;SDS011;62056;52.130;5.428;2024-01-30T08:03:45;6.90;;;5.75;;
73747;SDS011;62056;52.130;5.428;2024-01-30T08:06:12;7.45;;;5.03;;
73747;SDS011;62056;52.130;5.428;2024-01-30T08:08:39;6.07;;;4.47;;
73747;SDS011;62056;52.130;5.428;2024-01-30T08:11:06;6.60;;;4.47;;
73747;SDS011;62056;52.130;5.428;2024-01-30T08:13:34;4.47;;;4.05;;
73747;SDS011;62056;52.130;5.428;2024-01-30T08:16:00;7.30;;;4.88;;
73747;SDS011;62056;52.130;5.428;2024-01-30T08:18:27;6.68;;;4.63;;
73747;SDS011;62056;52.130;5.428;2024-01-30T08:20:54;5.80;;;4.33;;
73747;SDS011;62056;52.130;5.428;2024-01-30T08:23:21;6.95;;;4.00;;
73747;SDS011;62056;52.130;5.428;2024-01-30T08:25:48;4.38;;;3.45;;
73747;SDS011;62056;52.130;5.428;2024-01-30T08:28:15;6.40;;;3.60;;
73747;SDS011;62056;52.130;5.428;2024-01-30T08:30:44;8.65;;;4.00;;
73747;SDS011;62056;52.130;5.428;2024-01-30T08:33:11;5.47;;;3.87;;
73747;SDS011;62056;52.130;5.428;2024-01-30T08:35:38;7.32;;;4.55;;
73747;SDS011;62056;52.130;5.428;2024-01-30T08:38:05;7.75;;;4.65;;
73747;SDS011;62056;52.130;5.428;2024-01-30T08:40:32;8.63;;;4.63;;
73747;SDS011;62056;52.130;5.428;2024-01-30T08:43:00;17.00;;;8.43;;
73747;SDS011;62056;52.130;5.428;2024-01-30T08:45:27;4.20;;;3.80;;
73747;SDS011;62056;52.130;5.428;2024-01-30T08:47:53;4.68;;;3.33;;
73747;SDS011;62056;52.130;5.428;2024-01-30T08:50:21;6.72;;;4.85;;
73747;SDS011;62056;52.130;5.428;2024-01-30T08:52:47;9.93;;;3.70;;
73747;SDS011;62056;52.130;5.428;2024-01-30T08:55:15;8.38;;;4.50;;
73747;SDS011;62056;52.130;5.428;2024-01-30T08:57:42;16.53;;;6.67;;
73747;SDS011;62056;52.130;5.428;2024-01-30T09:00:10;6.97;;;3.75;;
73747;SDS011;62056;52.130;5.428;2024-01-30T09:02:37;7.50;;;3.50;;
73747;SDS011;62056;52.130;5.428;2024-01-30T09:05:04;9.15;;;4.90;;
73747;SDS011;62056;52.130;5.428;2024-01-30T09:07:36;11.32;;;6.63;;
73747;SDS011;62056;52.130;5.428;2024-01-30T09:10:03;9.90;;;4.70;;
73747;SDS011;62056;52.130;5.428;2024-01-30T09:12:30;4.47;;;2.90;;
73747;SDS011;62056;52.130;5.428;2024-01-30T09:14:57;6.72;;;4.78;;
73747;SDS011;62056;52.130;5.428;2024-01-30T09:17:23;6.20;;;4.25;;
73747;SDS011;62056;52.130;5.428;2024-01-30T09:19:50;10.55;;;4.60;;
73747;SDS011;62056;52.130;5.428;2024-01-30T09:22:17;8.93;;;4.80;;
73747;SDS011;62056;52.130;5.428;2024-01-30T09:24:44;8.60;;;4.03;;
73747;SDS011;62056;52.130;5.428;2024-01-30T09:27:11;7.57;;;4.10;;
73747;SDS011;62056;52.130;5.428;2024-01-30T09:29:38;8.35;;;4.57;;
73747;SDS011;62056;52.130;5.428;2024-01-30T09:32:05;10.80;;;4.82;;
73747;SDS011;62056;52.130;5.428;2024-01-30T09:34:33;6.70;;;3.93;;
73747;SDS011;62056;52.130;5.428;2024-01-30T09:36:59;4.82;;;3.33;;
73747;SDS011;62056;52.130;5.428;2024-01-30T09:39:26;7.82;;;4.38;;
73747;SDS011;62056;52.130;5.428;2024-01-30T09:42:12;7.13;;;4.22;;
73747;SDS011;62056;52.130;5.428;2024-01-30T09:44:55;6.88;;;4.78;;
73747;SDS011;62056;52.130;5.428;2024-01-30T09:47:22;4.97;;;3.43;;
73747;SDS011;62056;52.130;5.428;2024-01-30T09:49:50;6.72;;;4.40;;
73747;SDS011;62056;52.130;5.428;2024-01-30T09:52:18;8.57;;;4.70;;
73747;SDS011;62056;52.130;5.428;2024-01-30T09:54:45;6.75;;;3.80;;
73747;SDS011;62056;52.130;5.428;2024-01-30T09:57:16;5.43;;;3.85;;
73747;SDS011;62056;52.130;5.428;2024-01-30T09:59:42;5.50;;;3.17;;
73747;SDS011;62056;52.130;5.428;2024-01-30T10:02:10;8.18;;;4.53;;
73747;SDS011;62056;52.130;5.428;2024-01-30T10:04:37;6.68;;;4.55;;
73747;SDS011;62056;52.130;5.428;2024-01-30T10:07:06;9.15;;;4.13;;
73747;SDS011;62056;52.130;5.428;2024-01-30T10:09:38;7.43;;;4.32;;
73747;SDS011;62056;52.130;5.428;2024-01-30T10:12:04;6.60;;;3.93;;
73747;SDS011;62056;52.130;5.428;2024-01-30T10:14:32;7.03;;;4.50;;
73747;SDS011;62056;52.130;5.428;2024-01-30T10:17:00;7.30;;;4.70;;
73747;SDS011;62056;52.130;5.428;2024-01-30T10:19:32;13.57;;;4.63;;
73747;SDS011;62056;52.130;5.428;2024-01-30T10:22:03;4.90;;;3.80;;
73747;SDS011;62056;52.130;5.428;2024-01-30T10:24:30;4.43;;;3.67;;
73747;SDS011;62056;52.130;5.428;2024-01-30T10:26:58;9.18;;;4.00;;
73747;SDS011;62056;52.130;5.428;2024-01-30T10:29:25;6.43;;;4.25;;
73747;SDS011;62056;52.130;5.428;2024-01-30T10:32:01;4.95;;;3.50;;
73747;SDS011;62056;52.130;5.428;2024-01-30T10:34:29;5.68;;;3.60;;
73747;SDS011;62056;52.130;5.428;2024-01-30T10:37:10;4.33;;;3.90;;
73747;SDS011;62056;52.130;5.428;2024-01-30T10:39:44;6.57;;;4.05;;
73747;SDS011;62056;52.130;5.428;2024-01-30T10:42:13;10.88;;;4.60;;
73747;SDS011;62056;52.130;5.428;2024-01-30T10:44:58;6.53;;;3.65;;
73747;SDS011;62056;52.130;5.428;2024-01-30T10:47:35;10.63;;;4.90;;
73747;SDS011;62056;52.130;5.428;2024-01-30T10:50:04;4.93;;;4.27;;
73747;SDS011;62056;52.130;5.428;2024-01-30T10:52:32;12.65;;;4.13;;
73747;SDS011;62056;52.130;5.428;2024-01-30T10:54:59;9.48;;;4.40;;
73747;SDS011;62056;52.130;5.428;2024-01-30T10:57:27;10.27;;;2.88;;
73747;SDS011;62056;52.130;5.428;2024-01-30T10:59:58;8.07;;;3.80;;
73747;SDS011;62056;52.130;5.428;2024-01-30T11:02:26;5.37;;;3.60;;
73747;SDS011;62056;52.130;5.428;2024-01-30T11:04:57;5.82;;;3.58;;
73747;SDS011;62056;52.130;5.428;2024-01-30T11:07:27;4.63;;;3.00;;
73747;SDS011;62056;52.130;5.428;2024-01-30T11:12:31;4.03;;;3.28;;
73747;SDS011;62056;52.130;5.428;2024-01-30T11:15:07;3.20;;;2.90;;
73747;SDS011;62056;52.130;5.428;2024-01-30T11:17:41;3.67;;;2.75;;
73747;SDS011;62056;52.130;5.428;2024-01-30T11:20:30;6.03;;;3.08;;
73747;SDS011;62056;52.130;5.428;2024-01-30T11:22:59;8.65;;;3.47;;
73747;SDS011;62056;52.130;5.428;2024-01-30T11:25:28;6.15;;;3.22;;
73747;SDS011;62056;52.130;5.428;2024-01-30T11:27:58;4.67;;;2.93;;
73747;SDS011;62056;52.130;5.428;2024-01-30T11:30:26;5.07;;;3.10;;
73747;SDS011;62056;52.130;5.428;2024-01-30T11:35:32;3.08;;;2.75;;
73747;SDS011;62056;52.130;5.428;2024-01-30T11:38:00;2.75;;;1.98;;
73747;SDS011;62056;52.130;5.428;2024-01-30T11:40:28;3.70;;;2.37;;
73747;SDS011;62056;52.130;5.428;2024-01-30T11:42:56;3.75;;;1.52;;
73747;SDS011;62056;52.130;5.428;2024-01-30T11:45:25;2.45;;;1.17;;
73747;SDS011;62056;52.130;5.428;2024-01-30T11:47:54;4.35;;;1.00;;
73747;SDS011;62056;52.130;5.428;2024-01-30T11:50:22;3.53;;;1.33;;
73747;SDS011;62056;52.130;5.428;2024-01-30T11:52:49;5.00;;;1.27;;
73747;SDS011;62056;52.130;5.428;2024-01-30T11:55:16;3.97;;;0.93;;
73747;SDS011;62056;52.130;5.428;2024-01-30T11:57:45;3.00;;;0.93;;
73747;SDS011;62056;52.130;5.428;2024-01-30T12:00:15;3.88;;;0.65;;
73747;SDS011;62056;52.130;5.428;2024-01-30T12:02:48;2.00;;;0.80;;
73747;SDS011;62056;52.130;5.428;2024-01-30T12:05:16;2.57;;;0.57;;
73747;SDS011;62056;52.130;5.428;2024-01-30T12:07:45;2.80;;;0.60;;
73747;SDS011;62056;52.130;5.428;2024-01-30T12:10:13;2.70;;;0.57;;
73747;SDS011;62056;52.130;5.428;2024-01-30T12:12:41;3.80;;;0.50;;
73747;SDS011;62056;52.130;5.428;2024-01-30T12:15:09;3.60;;;0.50;;
73747;SDS011;62056;52.130;5.428;2024-01-30T12:17:37;2.53;;;0.53;;
73747;SDS011;62056;52.130;5.428;2024-01-30T12:20:04;2.60;;;0.40;;
73747;SDS011;62056;52.130;5.428;2024-01-30T12:22:35;6.03;;;0.80;;
73747;SDS011;62056;52.130;5.428;2024-01-30T12:25:13;2.78;;;0.47;;
73747;SDS011;62056;52.130;5.428;2024-01-30T12:27:45;4.35;;;0.65;;
73747;SDS011;62056;52.130;5.428;2024-01-30T12:30:18;2.57;;;0.70;;
73747;SDS011;62056;52.130;5.428;2024-01-30T12:32:50;1.23;;;0.73;;
73747;SDS011;62056;52.130;5.428;2024-01-30T12:35:19;2.67;;;0.60;;
73747;SDS011;62056;52.130;5.428;2024-01-30T12:37:48;4.53;;;0.75;;
73747;SDS011;62056;52.130;5.428;2024-01-30T12:40:15;2.88;;;0.45;;
73747;SDS011;62056;52.130;5.428;2024-01-30T12:42:45;2.37;;;0.53;;
73747;SDS011;62056;52.130;5.428;2024-01-30T12:45:16;4.93;;;1.38;;
73747;SDS011;62056;52.130;5.428;2024-01-30T12:47:49;1.48;;;0.68;;
73747;SDS011;62056;52.130;5.428;2024-01-30T12:50:16;5.60;;;0.70;;
73747;SDS011;62056;52.130;5.428;2024-01-30T12:52:44;3.50;;;0.60;;
73747;SDS011;62056;52.130;5.428;2024-01-30T12:55:15;3.47;;;0.90;;
73747;SDS011;62056;52.130;5.428;2024-01-30T12:57:42;3.70;;;0.90;;
73747;SDS011;62056;52.130;5.428;2024-01-30T13:00:09;1.13;;;0.70;;
73747;SDS011;62056;52.130;5.428;2024-01-30T13:02:38;2.33;;;0.70;;
73747;SDS011;62056;52.130;5.428;2024-01-30T13:05:05;3.50;;;0.93;;
73747;SDS011;62056;52.130;5.428;2024-01-30T13:07:32;2.40;;;0.70;;
73747;SDS011;62056;52.130;5.428;2024-01-30T13:10:00;2.45;;;0.60;;
73747;SDS011;62056;52.130;5.428;2024-01-30T13:12:30;2.20;;;0.70;;
73747;SDS011;62056;52.130;5.428;2024-01-30T13:14:59;2.67;;;0.70;;
73747;SDS011;62056;52.130;5.428;2024-01-30T13:17:27;3.00;;;1.15;;
73747;SDS011;62056;52.130;5.428;2024-01-30T13:19:55;2.63;;;0.73;;
73747;SDS011;62056;52.130;5.428;2024-01-30T13:22:27;1.40;;;0.50;;
73747;SDS011;62056;52.130;5.428;2024-01-30T13:24:54;2.88;;;0.43;;
73747;SDS011;62056;52.130;5.428;2024-01-30T13:27:21;3.50;;;0.60;;
73747;SDS011;62056;52.130;5.428;2024-01-30T13:29:48;1.67;;;0.65;;
73747;SDS011;62056;52.130;5.428;2024-01-30T13:32:15;2.90;;;0.43;;
73747;SDS011;62056;52.130;5.428;2024-01-30T13:34:42;1.52;;;0.38;;
73747;SDS011;62056;52.130;5.428;2024-01-30T13:37:09;2.05;;;0.43;;
73747;SDS011;62056;52.130;5.428;2024-01-30T13:39:37;1.52;;;0.50;;
73747;SDS011;62056;52.130;5.428;2024-01-30T13:42:05;2.42;;;0.40;;
73747;SDS011;62056;52.130;5.428;2024-01-30T13:44:32;0.90;;;0.40;;
73747;SDS011;62056;52.130;5.428;2024-01-30T13:46:59;1.35;;;0.30;;
73747;SDS011;62056;52.130;5.428;2024-01-30T13:49:26;2.97;;;0.40;;
73747;SDS011;62056;52.130;5.428;2024-01-30T13:51:55;2.88;;;0.40;;
73747;SDS011;62056;52.130;5.428;2024-01-30T13:54:23;1.02;;;0.30;;
73747;SDS011;62056;52.130;5.428;2024-01-30T13:56:50;1.30;;;0.30;;
73747;SDS011;62056;52.130;5.428;2024-01-30T13:59:17;2.70;;;0.30;;
73747;SDS011;62056;52.130;5.428;2024-01-30T14:01:50;2.08;;;0.38;;
73747;SDS011;62056;52.130;5.428;2024-01-30T14:04:17;1.08;;;0.30;;
73747;SDS011;62056;52.130;5.428;2024-01-30T14:06:44;1.25;;;0.30;;
73747;SDS011;62056;52.130;5.428;2024-01-30T14:09:22;2.03;;;0.30;;
73747;SDS011;62056;52.130;5.428;2024-01-30T14:11:49;1.63;;;0.60;;
73747;SDS011;62056;52.130;5.428;2024-01-30T14:14:15;2.10;;;0.40;;
73747;SDS011;62056;52.130;5.428;2024-01-30T14:16:42;0.73;;;0.30;;
73747;SDS011;62056;52.130;5.428;2024-01-30T14:19:09;1.25;;;0.40;;
73747;SDS011;62056;52.130;5.428;2024-01-30T14:21:36;1.47;;;0.50;;
73747;SDS011;62056;52.130;5.428;2024-01-30T14:24:03;2.90;;;0.40;;
73747;SDS011;62056;52.130;5.428;2024-01-30T14:26:30;2.85;;;0.45;;
73747;SDS011;62056;52.130;5.428;2024-01-30T14:28:57;4.03;;;0.30;;
73747;SDS011;62056;52.130;5.428;2024-01-30T14:31:24;2.03;;;0.30;;
73747;SDS011;62056;52.130;5.428;2024-01-30T14:33:50;2.60;;;0.60;;
73747;SDS011;62056;52.130;5.428;2024-01-30T14:36:18;4.38;;;0.70;;
73747;SDS011;62056;52.130;5.428;2024-01-30T14:38:46;4.47;;;0.60;;
73747;SDS011;62056;52.130;5.428;2024-01-30T14:41:13;3.03;;;0.40;;
73747;SDS011;62056;52.130;5.428;2024-01-30T14:43:41;3.75;;;0.43;;
73747;SDS011;62056;52.130;5.428;2024-01-30T14:46:08;1.87;;;0.50;;
73747;SDS011;62056;52.130;5.428;2024-01-30T14:48:35;1.15;;;0.30;;